TAF KLVM
KLVM 090533Z 0906/1006 25018G25KT P6SM SCT090 FM091900 26015KT P6SM FEW090 SCT120=
METAR KLVM
WC KLVM
WS KLVM
WV KLVM